createdAt,value
2018-08-22T00:00:50.182Z,98329.53
2018-08-22T00:03:20.915Z,98329.81
2018-08-22T00:05:53.548Z,98326.44
2018-08-22T00:08:29.764Z,98327.16
2018-08-22T00:11:00.444Z,98320.65
2018-08-22T00:13:33.593Z,98318.87
2018-08-22T00:16:04.270Z,98316.02
2018-08-22T00:18:34.616Z,98318.51
2018-08-22T00:21:06.527Z,98317.35
2018-08-22T00:23:37.211Z,98319.73
2018-08-22T00:26:07.821Z,98314.86
2018-08-22T00:28:38.700Z,98311.41
2018-08-22T00:31:09.313Z,98315.76
2018-08-22T00:33:40.065Z,98317.88
2018-08-22T00:36:11.711Z,98314.75
2018-08-22T00:38:43.199Z,98309.25
2018-08-22T00:41:15.657Z,98305.88
2018-08-22T00:43:46.178Z,98306.51
2018-08-22T00:46:17.158Z,98308.47
2018-08-22T00:48:47.373Z,98309.92
2018-08-22T00:51:19.711Z,98307.20
2018-08-22T00:53:50.592Z,98307.59
2018-08-22T00:56:20.709Z,98305.82
2018-08-22T00:58:51.763Z,98303.08
2018-08-22T01:01:22.398Z,98303.20
2018-08-22T01:03:54.023Z,98303.92
2018-08-22T01:06:24.550Z,98301.87
2018-08-22T01:08:55.626Z,98302.12
2018-08-22T01:11:26.381Z,98304.77
2018-08-22T01:13:57.653Z,98308.26
2018-08-22T01:16:28.793Z,98304.31
2018-08-22T01:18:58.823Z,98310.09
2018-08-22T01:21:29.590Z,98312.50
2018-08-22T01:23:59.721Z,98303.34
2018-08-22T01:26:31.425Z,98307.70
2018-08-22T01:29:01.505Z,98310.23
2018-08-22T01:31:31.795Z,98306.86
2018-08-22T01:34:02.907Z,98301.17
2018-08-22T01:36:33.287Z,98302.02
2018-08-22T01:39:04.130Z,98302.02
2018-08-22T01:41:35.524Z,98302.98
2018-08-22T01:44:05.609Z,98300.48
2018-08-22T01:46:38.133Z,98305.08
2018-08-22T01:49:08.527Z,98298.84
2018-08-22T01:51:41.119Z,98298.33
2018-08-22T01:54:11.585Z,98296.05
2018-08-22T01:56:42.422Z,98302.14
2018-08-22T01:59:13.163Z,98301.66
2018-08-22T02:01:43.884Z,98297.56
2018-08-22T02:04:14.057Z,98290.45
2018-08-22T02:06:44.741Z,98296.48
2018-08-22T02:09:15.035Z,98292.27
2018-08-22T02:11:45.792Z,98287.92
2018-08-22T02:14:17.206Z,98289.62
2018-08-22T02:16:47.644Z,98289.73
2018-08-22T02:19:18.328Z,98293.62
2018-08-22T02:21:48.754Z,98293.02
2018-08-22T02:24:19.891Z,98291.30
2018-08-22T02:26:50.035Z,98290.70
2018-08-22T02:29:20.352Z,98291.21
2018-08-22T02:31:51.877Z,98292.95
2018-08-22T02:34:23.257Z,98297.42
2018-08-22T02:36:53.335Z,98290.31
2018-08-22T02:39:24.545Z,98285.61
2018-08-22T02:41:55.242Z,98286.66
2018-08-22T02:44:26.186Z,98280.43
2018-08-22T02:46:57.190Z,98274.67
2018-08-22T02:49:30.843Z,98276.16
2018-08-22T02:52:02.186Z,98276.25
2018-08-22T02:54:33.202Z,98276.96
2018-08-22T02:57:03.597Z,98269.53
2018-08-22T02:59:34.884Z,98270.61
2018-08-22T03:02:06.300Z,98276.03
2018-08-22T03:04:37.928Z,98278.95
2018-08-22T03:07:08.962Z,98269.79
2018-08-22T03:09:39.896Z,98268.47
2018-08-22T03:12:13.902Z,98266.69
2018-08-22T03:14:45.038Z,98269.47
2018-08-22T03:17:15.148Z,98272.84
2018-08-22T03:19:45.759Z,98269.38
2018-08-22T03:22:16.904Z,98277.55
2018-08-22T03:24:47.107Z,98281.42
2018-08-22T03:27:18.068Z,98277.44
2018-08-22T03:29:48.768Z,98279.61
2018-08-22T03:32:20.164Z,98272.89
2018-08-22T03:34:51.078Z,98279.89
2018-08-22T03:37:21.422Z,98280.11
2018-08-22T03:39:51.854Z,98274.46
2018-08-22T03:42:22.032Z,98280.84
2018-08-22T03:44:52.734Z,98280.61
2018-08-22T03:47:23.297Z,98281.78
2018-08-22T03:49:53.654Z,98284.05
2018-08-22T03:52:26.370Z,98281.80
2018-08-22T03:54:57.190Z,98286.27
2018-08-22T03:57:27.598Z,98290.33
2018-08-22T03:59:59.155Z,98285.64
2018-08-22T04:02:30.538Z,98287.34
2018-08-22T04:05:00.629Z,98290.45
2018-08-22T04:07:31.546Z,98289.12
2018-08-22T04:10:02.258Z,98289.23
2018-08-22T04:12:33.372Z,98292.36
2018-08-22T04:15:05.566Z,98298.02
2018-08-22T04:17:40.292Z,98298.02
2018-08-22T04:20:10.856Z,98304.27
2018-08-22T04:22:42.667Z,98302.70
2018-08-22T04:25:13.421Z,98302.84
2018-08-22T04:27:44.486Z,98298.85
2018-08-22T04:30:15.736Z,98300.66
2018-08-22T04:32:46.823Z,98304.88
2018-08-22T04:35:17.490Z,98303.31
2018-08-22T04:37:47.650Z,98298.38
2018-08-22T04:40:20.973Z,98304.80
2018-08-22T04:42:51.690Z,98305.38
2018-08-22T04:45:23.580Z,98304.41
2018-08-22T04:47:53.826Z,98302.00
2018-08-22T04:50:26.437Z,98299.95
2018-08-22T04:52:56.756Z,98303.42
2018-08-22T04:55:28.431Z,98300.80
2018-08-22T04:57:59.737Z,98301.03
2018-08-22T05:00:32.198Z,98297.78
2018-08-22T05:03:04.583Z,98298.27
2018-08-22T05:05:37.024Z,98298.34
2018-08-22T05:08:08.810Z,98300.87
2018-08-22T05:10:39.466Z,98306.62
2018-08-22T05:13:10.546Z,98307.32
2018-08-22T05:15:40.968Z,98305.00
2018-08-22T05:18:12.086Z,98307.08
2018-08-22T05:20:43.201Z,98306.81
2018-08-22T05:23:13.892Z,98305.97
2018-08-22T05:25:44.336Z,98305.19
2018-08-22T05:28:15.106Z,98303.58
2018-08-22T05:30:46.068Z,98306.44
2018-08-22T05:33:16.693Z,98306.44
2018-08-22T05:35:48.708Z,98303.02
2018-08-22T05:38:18.910Z,98301.03
2018-08-22T05:40:49.582Z,98303.80
2018-08-22T05:43:19.675Z,98304.52
2018-08-22T05:45:50.481Z,98303.06
2018-08-22T05:48:22.335Z,98309.81
2018-08-22T05:50:52.868Z,98309.05
2018-08-22T05:53:23.475Z,98313.27
2018-08-22T05:55:53.579Z,98313.04
2018-08-22T05:58:25.238Z,98307.90
2018-08-22T06:00:55.471Z,98315.39
2018-08-22T06:03:26.203Z,98319.33
2018-08-22T06:05:57.164Z,98320.30
2018-08-22T06:08:28.209Z,98323.74
2018-08-22T06:10:59.048Z,98330.21
2018-08-22T06:13:29.164Z,98325.30
2018-08-22T06:16:01.215Z,98319.25
2018-08-22T06:18:31.903Z,98329.64
2018-08-22T06:21:03.438Z,98331.81
2018-08-22T06:23:34.376Z,98331.19
2018-08-22T06:26:04.555Z,98326.30
2018-08-22T06:28:35.590Z,98317.92
2018-08-22T06:31:06.629Z,98320.46
2018-08-22T06:33:38.184Z,98323.20
2018-08-22T06:36:10.700Z,98325.00
2018-08-22T06:38:41.945Z,98317.31
2018-08-22T06:41:13.448Z,98320.98
2018-08-22T06:43:45.235Z,98322.56
2018-08-22T06:46:15.644Z,98321.62
2018-08-22T06:48:46.966Z,98325.81
2018-08-22T06:51:18.093Z,98323.62
2018-08-22T06:53:48.792Z,98315.92
2018-08-22T06:56:20.116Z,98315.73
2018-08-22T06:58:50.817Z,98312.06
2018-08-22T07:01:21.384Z,98303.19
2018-08-22T07:03:52.134Z,98301.67
2018-08-22T07:06:23.770Z,98298.01
2018-08-22T07:08:54.950Z,98301.11
2018-08-22T07:11:25.546Z,98304.02
2018-08-22T07:13:55.720Z,98304.76
2018-08-22T07:16:26.300Z,98307.38
2018-08-22T07:18:56.409Z,98305.86
2018-08-22T07:21:27.514Z,98299.88
2018-08-22T07:23:58.882Z,98302.79
2018-08-22T07:26:30.395Z,98300.47
2018-08-22T07:29:01.983Z,98297.92
2018-08-22T07:31:32.729Z,98299.13
2018-08-22T07:34:04.369Z,98296.84
2018-08-22T07:36:35.889Z,98298.69
2018-08-22T07:39:12.317Z,98296.35
2018-08-22T07:41:43.938Z,98298.28
2018-08-22T07:44:15.099Z,98297.86
2018-08-22T07:46:45.834Z,98295.67
2018-08-22T07:49:16.321Z,98301.31
2018-08-22T07:51:47.949Z,98299.83
2018-08-22T07:54:19.671Z,98294.72
2018-08-22T07:56:50.417Z,98297.00
2018-08-22T07:59:21.604Z,98294.28
2018-08-22T08:01:52.355Z,98295.16
2018-08-22T08:04:22.727Z,98289.62
2018-08-22T08:06:53.721Z,98289.59
2018-08-22T08:09:24.167Z,98291.53
2018-08-22T08:11:55.920Z,98291.61
2018-08-22T08:14:26.507Z,98294.55
2018-08-22T08:16:57.768Z,98292.88
2018-08-22T08:19:28.741Z,98289.76
2018-08-22T08:22:00.255Z,98281.70
2018-08-22T08:24:30.807Z,98285.00
2018-08-22T08:27:02.182Z,98288.54
2018-08-22T08:29:33.356Z,98278.31
2018-08-22T08:32:03.783Z,98276.01
2018-08-22T08:34:35.725Z,98275.50
2018-08-22T08:37:05.947Z,98272.82
2018-08-22T08:39:38.879Z,98267.64
2018-08-22T08:42:09.739Z,98268.44
2018-08-22T08:44:41.822Z,98269.75
2018-08-22T08:47:13.003Z,98260.89
2018-08-22T08:49:44.236Z,98256.70
2018-08-22T08:52:14.434Z,98250.78
2018-08-22T08:54:46.639Z,98245.08
2018-08-22T08:57:17.867Z,98246.80
2018-08-22T08:59:48.162Z,98247.42
2018-08-22T09:02:19.847Z,98253.06
2018-08-22T09:04:51.493Z,98240.61
2018-08-22T09:07:22.770Z,98245.77
2018-08-22T09:09:53.234Z,98249.83
2018-08-22T09:12:23.555Z,98245.84
2018-08-22T09:17:24.914Z,98235.38
2018-08-22T09:19:55.605Z,98237.54
2018-08-22T09:22:26.014Z,98238.70
2018-08-22T09:24:57.958Z,98235.94
2018-08-22T09:27:28.194Z,98230.89
2018-08-22T09:30:00.149Z,98229.03
2018-08-22T09:32:30.685Z,98227.02
2018-08-22T09:35:02.016Z,98234.34
2018-08-22T09:37:33.516Z,98226.51
2018-08-22T09:40:04.407Z,98226.97
2018-08-22T09:42:36.358Z,98225.95
2018-08-22T09:45:06.598Z,98221.02
2018-08-22T09:47:37.838Z,98216.56
2018-08-22T09:50:09.442Z,98210.08
2018-08-22T09:52:41.106Z,98213.70
2018-08-22T09:55:12.254Z,98206.27
2018-08-22T09:57:44.213Z,98203.69
2018-08-22T10:00:19.741Z,98198.91
2018-08-22T10:02:51.161Z,98196.05
2018-08-22T10:05:21.225Z,98193.77
2018-08-22T10:07:52.240Z,98196.19
2018-08-22T10:10:22.627Z,98191.48
2018-08-22T10:12:52.794Z,98189.83
2018-08-22T10:15:22.955Z,98185.67
2018-08-22T10:17:55.210Z,98182.23
2018-08-22T10:20:26.968Z,98178.80
2018-08-22T10:22:58.422Z,98173.73
2018-08-22T10:25:28.870Z,98169.98
2018-08-22T10:28:00.522Z,98171.36
2018-08-22T10:30:30.673Z,98170.61
2018-08-22T10:33:02.117Z,98166.48
2018-08-22T10:35:32.742Z,98159.83
2018-08-22T10:38:03.369Z,98166.09
2018-08-22T10:40:34.718Z,98160.05
2018-08-22T10:43:05.782Z,98160.77
2018-08-22T10:45:36.090Z,98158.66
2018-08-22T10:48:06.367Z,98167.74
2018-08-22T10:50:37.464Z,98153.09
2018-08-22T10:53:08.080Z,98155.78
2018-08-22T10:55:38.504Z,98153.83
2018-08-22T10:58:08.525Z,98150.52
2018-08-22T11:00:40.212Z,98145.65
2018-08-22T11:03:11.704Z,98147.70
2018-08-22T11:05:42.776Z,98139.53
2018-08-22T11:08:14.752Z,98139.00
2018-08-22T11:10:45.451Z,98133.52
2018-08-22T11:13:15.689Z,98125.07
2018-08-22T11:15:47.292Z,98131.38
2018-08-22T11:18:17.984Z,98135.61
2018-08-22T11:20:50.787Z,98127.23
2018-08-22T11:23:33.465Z,98126.11
2018-08-22T11:26:16.189Z,98135.59
2018-08-22T11:28:57.730Z,98132.02
2018-08-22T11:31:41.463Z,98121.20
2018-08-22T11:34:24.832Z,98123.84
2018-08-22T11:37:17.793Z,98119.92
2018-08-22T11:39:49.274Z,98125.42
2018-08-22T11:42:21.141Z,98116.03
2018-08-22T11:44:51.315Z,98114.25
2018-08-22T11:47:23.709Z,98118.48
2018-08-22T11:49:54.109Z,98131.89
2018-08-22T11:52:25.109Z,98128.38
2018-08-22T11:54:55.736Z,98114.27
2018-08-22T11:57:26.828Z,98121.38
2018-08-22T11:59:57.235Z,98114.33
2018-08-22T12:02:27.900Z,98105.58
2018-08-22T12:04:58.077Z,98109.88
2018-08-22T12:07:29.906Z,98092.23
2018-08-22T12:10:01.103Z,98094.80
2018-08-22T12:12:33.055Z,98092.44
2018-08-22T12:15:03.711Z,98118.48
2018-08-22T12:17:34.097Z,98086.36
2018-08-22T12:20:04.799Z,98086.30
2018-08-22T12:22:36.305Z,98109.66
2018-08-22T12:25:07.017Z,98114.71
2018-08-22T12:27:38.402Z,98111.42
2018-08-22T12:30:10.779Z,98108.54
2018-08-22T12:32:41.015Z,98106.97
2018-08-22T12:35:11.716Z,98108.13
2018-08-22T12:37:43.108Z,98093.09
2018-08-22T12:40:15.147Z,98069.03
2018-08-22T12:42:45.555Z,98055.42
2018-08-22T12:45:17.789Z,98045.94
2018-08-22T12:47:48.751Z,98050.75
2018-08-22T12:50:19.801Z,98057.63
2018-08-22T12:52:50.476Z,98051.67
2018-08-22T12:55:21.647Z,98046.92
2018-08-22T12:57:51.759Z,98060.25
2018-08-22T13:00:22.718Z,98044.02
2018-08-22T13:02:53.601Z,98053.87
2018-08-22T13:05:25.255Z,98043.78
2018-08-22T13:07:55.793Z,98050.63
2018-08-22T13:10:25.984Z,98037.19
2018-08-22T13:12:56.654Z,98029.33
2018-08-22T13:15:27.385Z,98028.92
2018-08-22T13:17:57.909Z,98023.66
2018-08-22T13:20:28.434Z,98025.98
2018-08-22T13:22:59.546Z,98031.34
2018-08-22T13:25:30.620Z,98026.34
2018-08-22T13:28:01.094Z,98025.55
2018-08-22T13:30:32.354Z,98020.92
2018-08-22T13:33:05.180Z,98021.66
2018-08-22T13:35:36.120Z,98011.84
2018-08-22T13:38:07.622Z,98012.07
2018-08-22T13:40:37.896Z,98012.86
2018-08-22T13:43:09.726Z,98010.42
2018-08-22T13:45:40.788Z,97995.80
2018-08-22T13:48:11.795Z,97997.71
2018-08-22T13:50:42.422Z,97998.78
2018-08-22T13:53:12.737Z,97998.92
2018-08-22T13:55:44.282Z,97997.76
2018-08-22T13:58:15.327Z,97995.87
2018-08-22T14:00:46.038Z,97993.11
2018-08-22T14:03:18.464Z,97988.73
2018-08-22T14:05:50.177Z,97988.75
2018-08-22T14:08:21.326Z,97983.80
2018-08-22T14:10:51.783Z,97993.52
2018-08-22T14:13:23.079Z,97996.31
2018-08-22T14:15:54.252Z,98005.07
2018-08-22T14:18:25.340Z,97988.91
2018-08-22T14:20:56.306Z,97998.86
2018-08-22T14:23:27.396Z,97988.67
2018-08-22T14:25:57.874Z,97989.73
2018-08-22T14:28:30.963Z,97986.52
2018-08-22T14:31:01.859Z,97982.91
2018-08-22T14:33:32.528Z,97985.59
2018-08-22T14:36:04.136Z,97968.96
2018-08-22T14:38:35.031Z,97961.58
2018-08-22T14:41:05.276Z,97943.86
2018-08-22T14:43:37.647Z,97961.40
2018-08-22T14:46:09.880Z,97949.19
2018-08-22T14:48:39.974Z,97947.39
2018-08-22T14:51:10.120Z,97945.05
2018-08-22T14:53:40.589Z,97944.83
2018-08-22T14:56:11.197Z,97942.45
2018-08-22T14:58:41.862Z,97945.66
2018-08-22T15:01:16.057Z,97942.16
2018-08-22T15:03:46.125Z,97943.54
2018-08-22T15:06:17.344Z,97937.86
2018-08-22T15:08:48.397Z,97940.26
2018-08-22T15:11:20.254Z,97925.89
2018-08-22T15:13:50.525Z,97924.38
2018-08-22T15:16:21.592Z,97928.92
2018-08-22T15:18:51.949Z,97929.63
2018-08-22T15:21:22.107Z,97920.73
2018-08-22T15:23:53.265Z,97920.90
2018-08-22T15:26:26.049Z,97919.17
2018-08-22T15:28:57.211Z,97917.40
2018-08-22T15:31:27.477Z,97918.28
2018-08-22T15:33:58.095Z,97912.88
2018-08-22T15:36:29.064Z,97916.27
2018-08-22T15:38:59.246Z,97923.11
2018-08-22T15:41:29.772Z,97920.16
2018-08-22T15:44:00.095Z,97906.59
2018-08-22T15:46:31.599Z,97906.73
2018-08-22T15:49:01.689Z,97905.27
2018-08-22T15:51:32.601Z,97915.33
2018-08-22T15:54:13.694Z,97911.36
2018-08-22T15:56:45.085Z,97897.16
2018-08-22T15:59:15.829Z,97893.23
2018-08-22T16:01:48.583Z,97895.42
2018-08-22T16:04:18.764Z,97889.72
2018-08-22T16:07:09.711Z,97891.44
2018-08-22T16:09:40.716Z,97884.27
2018-08-22T16:12:11.235Z,97882.31
2018-08-22T16:14:42.064Z,97882.37
2018-08-22T16:17:13.309Z,97884.84
2018-08-22T16:19:45.159Z,97883.14
2018-08-22T16:22:19.643Z,97874.41
2018-08-22T16:24:51.026Z,97875.19
2018-08-22T16:27:21.244Z,97879.48
2018-08-22T16:29:51.352Z,97883.90
2018-08-22T16:32:22.051Z,97879.34
2018-08-22T16:34:53.747Z,97879.62
2018-08-22T16:40:05.819Z,97880.19
2018-08-22T16:42:38.464Z,97878.33
2018-08-22T16:45:09.450Z,97878.71
2018-08-22T16:47:40.133Z,97880.67
2018-08-22T16:50:10.615Z,97882.56
2018-08-22T16:52:40.769Z,97883.67
2018-08-22T16:55:21.070Z,97880.14
2018-08-22T16:57:52.800Z,97881.54
2018-08-22T17:00:29.901Z,97882.09
2018-08-22T17:03:01.053Z,97881.48
2018-08-22T17:05:31.829Z,97884.20
2018-08-22T17:08:03.859Z,97883.06
2018-08-22T17:10:47.184Z,97881.48
2018-08-22T17:13:26.582Z,97886.08
2018-08-22T17:15:58.170Z,97881.81
2018-08-22T17:18:28.970Z,97878.83
2018-08-22T17:21:00.176Z,97879.95
2018-08-22T17:23:31.384Z,97873.73
2018-08-22T17:26:01.968Z,97872.77
2018-08-22T17:28:38.495Z,97874.09
2018-08-22T17:31:10.323Z,97884.22
2018-08-22T17:33:41.833Z,97879.88
2018-08-22T17:36:14.839Z,97882.82
2018-08-22T17:38:48.829Z,97892.55
2018-08-22T17:41:21.873Z,97883.56
2018-08-22T17:44:10.961Z,97887.08
2018-08-22T17:46:43.873Z,97892.17
2018-08-22T17:49:15.031Z,97890.92
2018-08-22T17:52:14.545Z,97894.77
2018-08-22T17:54:45.969Z,97895.75
2018-08-22T17:57:21.531Z,97889.43
2018-08-22T17:59:52.687Z,97890.63
2018-08-22T18:02:23.663Z,97889.14
2018-08-22T18:04:56.713Z,97892.91
2018-08-22T18:07:29.283Z,97892.70
2018-08-22T18:10:02.798Z,97893.36
2018-08-22T18:12:33.307Z,97900.91
2018-08-22T18:15:04.867Z,97904.32
2018-08-22T18:17:37.150Z,97909.23
2018-08-22T18:20:07.452Z,97909.73
2018-08-22T18:22:39.789Z,97909.40
2018-08-22T18:25:10.718Z,97907.99
2018-08-22T18:27:43.149Z,97904.65
2018-08-22T18:30:13.781Z,97914.11
2018-08-22T18:32:45.928Z,97918.48
2018-08-22T18:35:16.407Z,97917.06
2018-08-22T18:37:46.669Z,97918.33
2018-08-22T18:40:18.956Z,97916.05
2018-08-22T18:42:52.817Z,97918.55
2018-08-22T18:45:24.114Z,97921.73
2018-08-22T18:47:54.269Z,97926.84
2018-08-22T18:50:24.859Z,97928.34
2018-08-22T18:52:57.177Z,97927.30
2018-08-22T18:55:29.577Z,97929.88
2018-08-22T18:58:01.401Z,97928.55
2018-08-22T19:00:38.543Z,97931.79
2018-08-22T19:03:09.156Z,97933.86
2018-08-22T19:05:40.411Z,97934.55
2018-08-22T19:08:14.996Z,97939.38
2018-08-22T19:10:52.084Z,97942.41
2018-08-22T19:13:23.907Z,97941.17
2018-08-22T19:15:59.745Z,97943.48
2018-08-22T19:18:30.248Z,97945.74
2018-08-22T19:21:03.602Z,97940.73
2018-08-22T19:23:35.129Z,97943.64
2018-08-22T19:26:06.417Z,97954.32
2018-08-22T19:28:53.141Z,97954.11
2018-08-22T19:31:24.183Z,97959.30
2018-08-22T19:33:55.248Z,97956.61
2018-08-22T19:36:26.102Z,97956.73
2018-08-22T19:38:57.419Z,97958.41
2018-08-22T19:41:33.347Z,97954.74
2018-08-22T19:44:05.625Z,97959.31
2018-08-22T19:46:36.666Z,97958.02
2018-08-22T19:49:07.708Z,97962.59
2018-08-22T19:51:37.910Z,97958.41
2018-08-22T19:54:09.947Z,97960.92
2018-08-22T19:56:40.212Z,97960.80
2018-08-22T19:59:12.047Z,97957.16
2018-08-22T20:01:44.069Z,97954.66
2018-08-22T20:04:15.730Z,97956.36
2018-08-22T20:06:47.695Z,97969.08
2018-08-22T20:09:18.669Z,97964.97
2018-08-22T20:11:50.002Z,97972.20
2018-08-22T20:14:20.349Z,97972.06
2018-08-22T20:16:51.196Z,97971.75
2018-08-22T20:19:21.818Z,97972.09
2018-08-22T20:21:53.233Z,97969.91
2018-08-22T20:24:25.049Z,97968.20
2018-08-22T20:27:03.886Z,97974.41
2018-08-22T20:29:36.119Z,97977.61
2018-08-22T20:32:11.027Z,97976.93
2018-08-22T20:34:45.373Z,97977.95
2018-08-22T20:37:15.516Z,97976.77
2018-08-22T20:39:47.497Z,97975.30
2018-08-22T20:42:17.953Z,97978.25
2018-08-22T20:44:48.980Z,97971.23
2018-08-22T20:47:19.284Z,97975.73
2018-08-22T20:49:51.402Z,97972.72
2018-08-22T20:52:21.678Z,97975.69
2018-08-22T20:54:58.282Z,97971.54
2018-08-22T20:57:29.680Z,97971.52
2018-08-22T21:00:00.935Z,97970.01
2018-08-22T21:02:31.741Z,97976.16
2018-08-22T21:05:04.236Z,97975.48
2018-08-22T21:07:39.239Z,97973.20
2018-08-22T21:10:10.019Z,97977.02
2018-08-22T21:12:40.998Z,97974.66
2018-08-22T21:15:11.699Z,97980.11
2018-08-22T21:17:44.778Z,97972.34
2018-08-22T21:20:22.918Z,97976.19
2018-08-22T21:22:56.625Z,97978.57
2018-08-22T21:25:27.472Z,97977.73
2018-08-22T21:27:57.721Z,97976.75
2018-08-22T21:30:28.105Z,97978.84
2018-08-22T21:32:59.558Z,97976.83
2018-08-22T21:35:30.159Z,97978.50
2018-08-22T21:38:09.897Z,97977.88
2018-08-22T21:40:40.530Z,97978.23
2018-08-22T21:43:13.047Z,97972.29
2018-08-22T21:45:44.156Z,97978.92
2018-08-22T21:48:20.826Z,97972.83
2018-08-22T21:50:52.223Z,97984.55
2018-08-22T21:53:22.517Z,97991.67
2018-08-22T21:55:53.994Z,97988.66
2018-08-22T21:58:25.231Z,97980.46
2018-08-22T22:00:55.337Z,97977.52
2018-08-22T22:03:32.364Z,97979.08
2018-08-22T22:06:04.903Z,97971.91
2018-08-22T22:08:35.201Z,97972.34
2018-08-22T22:11:07.597Z,97971.38
2018-08-22T22:13:38.258Z,97966.81
2018-08-22T22:16:11.327Z,97966.92
2018-08-22T22:18:43.346Z,97968.72
2018-08-22T22:21:15.058Z,97975.45
2018-08-22T22:23:47.461Z,97970.80
2018-08-22T22:26:19.186Z,97965.52
2018-08-22T22:28:49.725Z,97959.64
2018-08-22T22:31:20.885Z,97963.06
2018-08-22T22:33:53.847Z,97962.55
2018-08-22T22:36:24.120Z,97960.72
2018-08-22T22:38:54.198Z,97964.02
2018-08-22T22:41:26.543Z,97961.09
2018-08-22T22:43:59.057Z,97953.87
2018-08-22T22:46:29.697Z,97966.11
2018-08-22T22:49:01.643Z,97971.45
2018-08-22T22:51:32.022Z,97972.25
2018-08-22T22:54:04.391Z,97971.63
2018-08-22T22:56:35.043Z,97969.64
2018-08-22T22:59:05.818Z,97968.21
2018-08-22T23:01:36.411Z,97964.89
2018-08-22T23:04:07.708Z,97961.17
2018-08-22T23:06:38.166Z,97965.58
2018-08-22T23:09:08.243Z,97956.61
2018-08-22T23:11:38.425Z,97962.61
2018-08-22T23:14:08.982Z,97961.88
2018-08-22T23:16:40.278Z,97962.65
2018-08-22T23:19:14.298Z,97963.70
2018-08-22T23:21:45.034Z,97962.69
2018-08-22T23:24:22.835Z,97959.50
2018-08-22T23:26:53.570Z,97959.19
2018-08-22T23:29:23.982Z,97958.70
2018-08-22T23:31:54.880Z,97957.81
2018-08-22T23:34:25.387Z,97960.95
2018-08-22T23:36:56.714Z,97956.26
2018-08-22T23:39:29.679Z,97953.81
2018-08-22T23:42:00.738Z,97956.53
2018-08-22T23:44:31.379Z,97950.03
2018-08-22T23:47:03.116Z,97952.52
2018-08-22T23:49:35.754Z,97957.51
2018-08-22T23:52:06.867Z,97952.64
2018-08-22T23:54:41.168Z,97959.07
2018-08-22T23:57:13.025Z,97951.17
2018-08-22T23:59:44.084Z,97950.75
